sensor_id;sensor_type;location;lat;lon;timestamp;P1;durP1;ratioP1;P2;durP2;ratioP2
13250;SDS011;6692;50.710;7.180;2023-04-03T00:01:07;7.97;;;7.53;;
13250;SDS011;6692;50.710;7.180;2023-04-03T00:03:08;8.20;;;7.70;;
13250;SDS011;6692;50.710;7.180;2023-04-03T00:05:08;7.97;;;7.47;;
13250;SDS011;6692;50.710;7.180;2023-04-03T00:07:10;8.37;;;7.90;;
13250;SDS011;6692;50.710;7.180;2023-04-03T00:09:11;8.27;;;7.77;;
13250;SDS011;6692;50.710;7.180;2023-04-03T00:11:12;8.30;;;7.83;;
13250;SDS011;6692;50.710;7.180;2023-04-03T00:13:13;9.10;;;8.43;;
13250;SDS011;6692;50.710;7.180;2023-04-03T00:15:13;8.37;;;7.87;;
13250;SDS011;6692;50.710;7.180;2023-04-03T00:17:14;8.67;;;8.17;;
13250;SDS011;6692;50.710;7.180;2023-04-03T00:19:15;8.93;;;8.33;;
13250;SDS011;6692;50.710;7.180;2023-04-03T00:21:15;8.83;;;8.33;;
13250;SDS011;6692;50.710;7.180;2023-04-03T00:23:17;9.10;;;8.50;;
13250;SDS011;6692;50.710;7.180;2023-04-03T00:25:17;8.07;;;7.63;;
13250;SDS011;6692;50.710;7.180;2023-04-03T00:27:18;8.50;;;7.90;;
13250;SDS011;6692;50.710;7.180;2023-04-03T00:29:19;7.83;;;7.33;;
13250;SDS011;6692;50.710;7.180;2023-04-03T00:31:19;7.60;;;7.17;;
13250;SDS011;6692;50.710;7.180;2023-04-03T00:33:20;7.60;;;7.10;;
13250;SDS011;6692;50.710;7.180;2023-04-03T00:35:21;7.13;;;6.73;;
13250;SDS011;6692;50.710;7.180;2023-04-03T00:37:21;8.03;;;7.63;;
13250;SDS011;6692;50.710;7.180;2023-04-03T00:39:22;7.60;;;7.20;;
13250;SDS011;6692;50.710;7.180;2023-04-03T00:41:23;8.27;;;7.77;;
13250;SDS011;6692;50.710;7.180;2023-04-03T00:43:24;7.50;;;7.10;;
13250;SDS011;6692;50.710;7.180;2023-04-03T00:45:27;7.97;;;7.50;;
13250;SDS011;6692;50.710;7.180;2023-04-03T00:47:26;6.63;;;6.13;;
13250;SDS011;6692;50.710;7.180;2023-04-03T00:49:26;8.00;;;7.50;;
13250;SDS011;6692;50.710;7.180;2023-04-03T00:51:27;6.17;;;5.87;;
13250;SDS011;6692;50.710;7.180;2023-04-03T00:53:30;7.43;;;6.93;;
13250;SDS011;6692;50.710;7.180;2023-04-03T00:55:31;6.70;;;6.30;;
13250;SDS011;6692;50.710;7.180;2023-04-03T00:57:32;6.27;;;5.93;;
13250;SDS011;6692;50.710;7.180;2023-04-03T00:59:33;7.47;;;7.07;;
13250;SDS011;6692;50.710;7.180;2023-04-03T01:01:34;6.10;;;5.70;;
13250;SDS011;6692;50.710;7.180;2023-04-03T01:03:34;5.97;;;5.63;;
13250;SDS011;6692;50.710;7.180;2023-04-03T01:05:35;6.80;;;6.40;;
13250;SDS011;6692;50.710;7.180;2023-04-03T01:07:37;6.17;;;5.77;;
13250;SDS011;6692;50.710;7.180;2023-04-03T01:09:37;6.03;;;5.70;;
13250;SDS011;6692;50.710;7.180;2023-04-03T01:11:39;6.53;;;6.03;;
13250;SDS011;6692;50.710;7.180;2023-04-03T01:13:39;6.73;;;6.33;;
13250;SDS011;6692;50.710;7.180;2023-04-03T01:15:40;6.40;;;6.00;;
13250;SDS011;6692;50.710;7.180;2023-04-03T01:17:42;6.30;;;5.90;;
13250;SDS011;6692;50.710;7.180;2023-04-03T01:19:43;5.87;;;5.57;;
13250;SDS011;6692;50.710;7.180;2023-04-03T01:21:51;5.63;;;5.33;;
13250;SDS011;6692;50.710;7.180;2023-04-03T01:24:03;6.13;;;5.67;;
13250;SDS011;6692;50.710;7.180;2023-04-03T01:26:16;5.60;;;5.30;;
13250;SDS011;6692;50.710;7.180;2023-04-03T01:28:19;6.80;;;6.40;;
13250;SDS011;6692;50.710;7.180;2023-04-03T01:30:18;5.80;;;5.40;;
13250;SDS011;6692;50.710;7.180;2023-04-03T01:32:18;6.07;;;5.67;;
13250;SDS011;6692;50.710;7.180;2023-04-03T01:34:19;6.87;;;6.47;;
13250;SDS011;6692;50.710;7.180;2023-04-03T01:36:21;6.33;;;5.87;;
13250;SDS011;6692;50.710;7.180;2023-04-03T01:38:21;7.57;;;7.17;;
13250;SDS011;6692;50.710;7.180;2023-04-03T01:40:22;5.80;;;5.40;;
13250;SDS011;6692;50.710;7.180;2023-04-03T01:42:23;5.73;;;5.33;;
13250;SDS011;6692;50.710;7.180;2023-04-03T01:44:23;5.17;;;4.87;;
13250;SDS011;6692;50.710;7.180;2023-04-03T01:46:24;5.70;;;5.30;;
13250;SDS011;6692;50.710;7.180;2023-04-03T01:48:25;5.40;;;5.00;;
13250;SDS011;6692;50.710;7.180;2023-04-03T01:50:26;6.23;;;5.73;;
13250;SDS011;6692;50.710;7.180;2023-04-03T01:52:26;5.33;;;4.97;;
13250;SDS011;6692;50.710;7.180;2023-04-03T01:54:27;5.63;;;5.33;;
13250;SDS011;6692;50.710;7.180;2023-04-03T01:56:28;5.93;;;5.53;;
13250;SDS011;6692;50.710;7.180;2023-04-03T01:58:29;5.97;;;5.57;;
13250;SDS011;6692;50.710;7.180;2023-04-03T02:00:30;6.30;;;5.87;;
13250;SDS011;6692;50.710;7.180;2023-04-03T02:02:30;5.80;;;5.47;;
13250;SDS011;6692;50.710;7.180;2023-04-03T02:04:32;6.37;;;5.97;;
13250;SDS011;6692;50.710;7.180;2023-04-03T02:06:32;5.57;;;5.17;;
13250;SDS011;6692;50.710;7.180;2023-04-03T02:08:33;6.90;;;6.50;;
13250;SDS011;6692;50.710;7.180;2023-04-03T02:10:34;5.80;;;5.40;;
13250;SDS011;6692;50.710;7.180;2023-04-03T02:12:34;6.20;;;5.70;;
13250;SDS011;6692;50.710;7.180;2023-04-03T02:14:35;6.03;;;5.57;;
13250;SDS011;6692;50.710;7.180;2023-04-03T02:16:36;5.60;;;5.23;;
13250;SDS011;6692;50.710;7.180;2023-04-03T02:18:37;5.53;;;5.13;;
13250;SDS011;6692;50.710;7.180;2023-04-03T02:20:37;5.33;;;5.03;;
13250;SDS011;6692;50.710;7.180;2023-04-03T02:22:38;5.63;;;5.23;;
13250;SDS011;6692;50.710;7.180;2023-04-03T02:24:38;5.63;;;5.33;;
13250;SDS011;6692;50.710;7.180;2023-04-03T02:26:39;5.50;;;5.13;;
13250;SDS011;6692;50.710;7.180;2023-04-03T02:28:40;5.17;;;4.87;;
13250;SDS011;6692;50.710;7.180;2023-04-03T02:30:40;5.37;;;5.07;;
13250;SDS011;6692;50.710;7.180;2023-04-03T02:32:42;5.77;;;5.37;;
13250;SDS011;6692;50.710;7.180;2023-04-03T02:34:42;7.07;;;6.50;;
13250;SDS011;6692;50.710;7.180;2023-04-03T02:36:43;6.67;;;6.07;;
13250;SDS011;6692;50.710;7.180;2023-04-03T02:38:43;6.83;;;6.33;;
13250;SDS011;6692;50.710;7.180;2023-04-03T02:40:44;7.40;;;6.90;;
13250;SDS011;6692;50.710;7.180;2023-04-03T02:42:44;6.60;;;6.17;;
13250;SDS011;6692;50.710;7.180;2023-04-03T02:44:45;7.27;;;6.83;;
13250;SDS011;6692;50.710;7.180;2023-04-03T02:46:46;5.83;;;5.43;;
13250;SDS011;6692;50.710;7.180;2023-04-03T02:48:47;6.33;;;5.73;;
13250;SDS011;6692;50.710;7.180;2023-04-03T02:50:48;5.87;;;5.47;;
13250;SDS011;6692;50.710;7.180;2023-04-03T02:52:49;5.23;;;4.83;;
13250;SDS011;6692;50.710;7.180;2023-04-03T02:54:49;5.30;;;4.90;;
13250;SDS011;6692;50.710;7.180;2023-04-03T02:56:50;6.20;;;5.70;;
13250;SDS011;6692;50.710;7.180;2023-04-03T02:58:51;4.97;;;4.67;;
13250;SDS011;6692;50.710;7.180;2023-04-03T03:00:51;5.13;;;4.73;;
13250;SDS011;6692;50.710;7.180;2023-04-03T03:02:52;5.03;;;4.67;;
13250;SDS011;6692;50.710;7.180;2023-04-03T03:04:53;4.83;;;4.50;;
13250;SDS011;6692;50.710;7.180;2023-04-03T03:06:54;4.80;;;4.50;;
13250;SDS011;6692;50.710;7.180;2023-04-03T03:08:55;5.13;;;4.73;;
13250;SDS011;6692;50.710;7.180;2023-04-03T03:10:55;4.73;;;4.33;;
13250;SDS011;6692;50.710;7.180;2023-04-03T03:12:57;4.37;;;4.07;;
13250;SDS011;6692;50.710;7.180;2023-04-03T03:14:57;4.37;;;4.07;;
13250;SDS011;6692;50.710;7.180;2023-04-03T03:16:58;5.70;;;5.20;;
13250;SDS011;6692;50.710;7.180;2023-04-03T03:18:59;4.57;;;4.20;;
13250;SDS011;6692;50.710;7.180;2023-04-03T03:21:00;4.27;;;3.97;;
13250;SDS011;6692;50.710;7.180;2023-04-03T03:23:00;4.23;;;3.90;;
13250;SDS011;6692;50.710;7.180;2023-04-03T03:25:02;4.50;;;4.13;;
13250;SDS011;6692;50.710;7.180;2023-04-03T03:27:03;4.53;;;4.13;;
13250;SDS011;6692;50.710;7.180;2023-04-03T03:29:03;4.37;;;3.97;;
13250;SDS011;6692;50.710;7.180;2023-04-03T03:31:05;4.70;;;4.40;;
13250;SDS011;6692;50.710;7.180;2023-04-03T03:33:05;4.07;;;3.77;;
13250;SDS011;6692;50.710;7.180;2023-04-03T03:35:06;4.37;;;3.90;;
13250;SDS011;6692;50.710;7.180;2023-04-03T03:37:07;3.93;;;3.63;;
13250;SDS011;6692;50.710;7.180;2023-04-03T03:39:08;4.07;;;3.77;;
13250;SDS011;6692;50.710;7.180;2023-04-03T03:41:09;4.13;;;3.43;;
13250;SDS011;6692;50.710;7.180;2023-04-03T03:43:10;3.70;;;3.40;;
13250;SDS011;6692;50.710;7.180;2023-04-03T03:45:11;4.20;;;3.80;;
13250;SDS011;6692;50.710;7.180;2023-04-03T03:47:11;3.83;;;3.27;;
13250;SDS011;6692;50.710;7.180;2023-04-03T03:49:12;4.07;;;3.77;;
13250;SDS011;6692;50.710;7.180;2023-04-03T03:51:14;5.33;;;3.50;;
13250;SDS011;6692;50.710;7.180;2023-04-03T03:53:14;3.33;;;3.03;;
13250;SDS011;6692;50.710;7.180;2023-04-03T03:55:15;4.00;;;3.60;;
13250;SDS011;6692;50.710;7.180;2023-04-03T03:57:16;3.73;;;3.50;;
13250;SDS011;6692;50.710;7.180;2023-04-03T03:59:16;3.90;;;3.60;;
13250;SDS011;6692;50.710;7.180;2023-04-03T04:01:17;4.00;;;3.70;;
13250;SDS011;6692;50.710;7.180;2023-04-03T04:03:18;3.73;;;3.30;;
13250;SDS011;6692;50.710;7.180;2023-04-03T04:05:19;4.60;;;3.63;;
13250;SDS011;6692;50.710;7.180;2023-04-03T04:07:20;4.13;;;3.73;;
13250;SDS011;6692;50.710;7.180;2023-04-03T04:09:21;4.53;;;4.12;;
13250;SDS011;6692;50.710;7.180;2023-04-03T04:11:22;3.87;;;3.57;;
13250;SDS011;6692;50.710;7.180;2023-04-03T04:13:22;4.80;;;3.23;;
13250;SDS011;6692;50.710;7.180;2023-04-03T04:15:23;4.20;;;3.80;;
13250;SDS011;6692;50.710;7.180;2023-04-03T04:17:24;3.60;;;3.30;;
13250;SDS011;6692;50.710;7.180;2023-04-03T04:19:25;3.90;;;3.55;;
13250;SDS011;6692;50.710;7.180;2023-04-03T04:21:26;6.83;;;3.63;;
13250;SDS011;6692;50.710;7.180;2023-04-03T04:23:27;4.97;;;4.47;;
13250;SDS011;6692;50.710;7.180;2023-04-03T04:25:28;3.67;;;3.37;;
13250;SDS011;6692;50.710;7.180;2023-04-03T04:27:28;4.10;;;3.50;;
13250;SDS011;6692;50.710;7.180;2023-04-03T04:29:30;5.93;;;4.63;;
13250;SDS011;6692;50.710;7.180;2023-04-03T04:31:31;6.22;;;5.62;;
13250;SDS011;6692;50.710;7.180;2023-04-03T04:33:31;5.37;;;4.83;;
13250;SDS011;6692;50.710;7.180;2023-04-03T04:35:32;6.10;;;5.20;;
13250;SDS011;6692;50.710;7.180;2023-04-03T04:37:33;5.20;;;4.70;;
13250;SDS011;6692;50.710;7.180;2023-04-03T04:39:34;5.12;;;4.72;;
13250;SDS011;6692;50.710;7.180;2023-04-03T04:41:35;5.07;;;4.67;;
13250;SDS011;6692;50.710;7.180;2023-04-03T04:43:36;4.75;;;4.35;;
13250;SDS011;6692;50.710;7.180;2023-04-03T04:45:37;4.97;;;4.63;;
13250;SDS011;6692;50.710;7.180;2023-04-03T04:47:38;4.97;;;4.47;;
13250;SDS011;6692;50.710;7.180;2023-04-03T04:49:40;4.35;;;3.95;;
13250;SDS011;6692;50.710;7.180;2023-04-03T04:51:41;4.18;;;3.70;;
13250;SDS011;6692;50.710;7.180;2023-04-03T04:53:42;4.70;;;4.30;;
13250;SDS011;6692;50.710;7.180;2023-04-03T04:55:43;4.63;;;4.13;;
13250;SDS011;6692;50.710;7.180;2023-04-03T04:57:44;4.65;;;4.25;;
13250;SDS011;6692;50.710;7.180;2023-04-03T04:59:45;4.10;;;3.80;;
13250;SDS011;6692;50.710;7.180;2023-04-03T05:01:45;4.27;;;3.80;;
13250;SDS011;6692;50.710;7.180;2023-04-03T05:03:46;4.90;;;4.07;;
13250;SDS011;6692;50.710;7.180;2023-04-03T05:05:47;4.67;;;3.77;;
13250;SDS011;6692;50.710;7.180;2023-04-03T05:07:48;3.87;;;3.57;;
13250;SDS011;6692;50.710;7.180;2023-04-03T05:09:49;5.37;;;4.30;;
13250;SDS011;6692;50.710;7.180;2023-04-03T05:11:49;4.87;;;4.37;;
13250;SDS011;6692;50.710;7.180;2023-04-03T05:13:50;5.27;;;4.37;;
13250;SDS011;6692;50.710;7.180;2023-04-03T05:15:51;4.57;;;4.17;;
13250;SDS011;6692;50.710;7.180;2023-04-03T05:17:52;4.27;;;3.87;;
13250;SDS011;6692;50.710;7.180;2023-04-03T05:19:53;4.28;;;3.87;;
13250;SDS011;6692;50.710;7.180;2023-04-03T05:21:54;5.73;;;4.37;;
13250;SDS011;6692;50.710;7.180;2023-04-03T05:23:55;5.65;;;4.25;;
13250;SDS011;6692;50.710;7.180;2023-04-03T05:25:56;5.70;;;3.97;;
13250;SDS011;6692;50.710;7.180;2023-04-03T05:27:56;4.73;;;4.33;;
13250;SDS011;6692;50.710;7.180;2023-04-03T05:29:57;4.67;;;4.07;;
13250;SDS011;6692;50.710;7.180;2023-04-03T05:31:58;4.70;;;4.10;;
13250;SDS011;6692;50.710;7.180;2023-04-03T05:33:58;4.73;;;3.77;;
13250;SDS011;6692;50.710;7.180;2023-04-03T05:36:02;4.37;;;3.87;;
13250;SDS011;6692;50.710;7.180;2023-04-03T05:38:01;5.97;;;3.62;;
13250;SDS011;6692;50.710;7.180;2023-04-03T05:40:03;4.63;;;4.10;;
13250;SDS011;6692;50.710;7.180;2023-04-03T05:42:03;4.30;;;4.00;;
13250;SDS011;6692;50.710;7.180;2023-04-03T05:44:04;4.17;;;3.43;;
13250;SDS011;6692;50.710;7.180;2023-04-03T05:46:09;3.53;;;3.23;;
13250;SDS011;6692;50.710;7.180;2023-04-03T05:48:10;4.80;;;3.75;;
13250;SDS011;6692;50.710;7.180;2023-04-03T05:50:11;3.50;;;3.13;;
13250;SDS011;6692;50.710;7.180;2023-04-03T05:52:17;4.00;;;3.70;;
13250;SDS011;6692;50.710;7.180;2023-04-03T05:54:17;5.15;;;4.25;;
13250;SDS011;6692;50.710;7.180;2023-04-03T05:56:19;5.00;;;3.97;;
13250;SDS011;6692;50.710;7.180;2023-04-03T05:58:20;3.73;;;3.37;;
13250;SDS011;6692;50.710;7.180;2023-04-03T06:00:21;5.27;;;3.83;;
13250;SDS011;6692;50.710;7.180;2023-04-03T06:02:23;4.03;;;3.60;;
13250;SDS011;6692;50.710;7.180;2023-04-03T06:04:23;4.35;;;3.78;;
13250;SDS011;6692;50.710;7.180;2023-04-03T06:06:24;4.07;;;3.67;;
13250;SDS011;6692;50.710;7.180;2023-04-03T06:08:25;6.43;;;4.23;;
13250;SDS011;6692;50.710;7.180;2023-04-03T06:10:26;4.72;;;3.60;;
13250;SDS011;6692;50.710;7.180;2023-04-03T06:12:26;4.87;;;3.80;;
13250;SDS011;6692;50.710;7.180;2023-04-03T06:14:28;4.40;;;3.53;;
13250;SDS011;6692;50.710;7.180;2023-04-03T06:16:29;4.20;;;3.20;;
13250;SDS011;6692;50.710;7.180;2023-04-03T06:18:30;4.47;;;3.53;;
13250;SDS011;6692;50.710;7.180;2023-04-03T06:20:31;4.10;;;3.30;;
13250;SDS011;6692;50.710;7.180;2023-04-03T06:22:32;3.43;;;3.10;;
13250;SDS011;6692;50.710;7.180;2023-04-03T06:24:33;3.28;;;2.97;;
13250;SDS011;6692;50.710;7.180;2023-04-03T06:26:34;4.47;;;3.40;;
13250;SDS011;6692;50.710;7.180;2023-04-03T06:28:34;3.73;;;3.07;;
13250;SDS011;6692;50.710;7.180;2023-04-03T06:30:35;4.10;;;3.60;;
13250;SDS011;6692;50.710;7.180;2023-04-03T06:32:35;3.93;;;3.37;;
13250;SDS011;6692;50.710;7.180;2023-04-03T06:34:36;4.00;;;3.70;;
13250;SDS011;6692;50.710;7.180;2023-04-03T06:36:37;3.97;;;3.40;;
13250;SDS011;6692;50.710;7.180;2023-04-03T06:38:38;4.23;;;3.07;;
13250;SDS011;6692;50.710;7.180;2023-04-03T06:40:39;3.97;;;3.30;;
13250;SDS011;6692;50.710;7.180;2023-04-03T06:42:40;3.50;;;3.20;;
13250;SDS011;6692;50.710;7.180;2023-04-03T06:44:41;3.90;;;3.40;;
13250;SDS011;6692;50.710;7.180;2023-04-03T06:46:42;4.43;;;3.30;;
13250;SDS011;6692;50.710;7.180;2023-04-03T06:48:42;5.50;;;3.53;;
13250;SDS011;6692;50.710;7.180;2023-04-03T06:50:43;4.63;;;3.87;;
13250;SDS011;6692;50.710;7.180;2023-04-03T06:52:44;4.77;;;3.60;;
13250;SDS011;6692;50.710;7.180;2023-04-03T06:54:44;3.83;;;3.53;;
13250;SDS011;6692;50.710;7.180;2023-04-03T06:56:45;6.60;;;3.43;;
13250;SDS011;6692;50.710;7.180;2023-04-03T06:58:46;5.00;;;3.23;;
13250;SDS011;6692;50.710;7.180;2023-04-03T07:00:47;3.70;;;3.40;;
13250;SDS011;6692;50.710;7.180;2023-04-03T07:02:47;4.47;;;3.70;;
13250;SDS011;6692;50.710;7.180;2023-04-03T07:04:48;3.73;;;3.30;;
13250;SDS011;6692;50.710;7.180;2023-04-03T07:06:49;4.87;;;3.73;;
13250;SDS011;6692;50.710;7.180;2023-04-03T07:08:49;4.23;;;3.80;;
13250;SDS011;6692;50.710;7.180;2023-04-03T07:10:51;5.23;;;3.50;;
13250;SDS011;6692;50.710;7.180;2023-04-03T07:12:51;4.43;;;3.97;;
13250;SDS011;6692;50.710;7.180;2023-04-03T07:14:52;5.73;;;3.70;;
13250;SDS011;6692;50.710;7.180;2023-04-03T07:16:53;3.67;;;3.33;;
13250;SDS011;6692;50.710;7.180;2023-04-03T07:18:54;6.90;;;3.47;;
13250;SDS011;6692;50.710;7.180;2023-04-03T07:20:55;5.20;;;3.50;;
13250;SDS011;6692;50.710;7.180;2023-04-03T07:22:55;6.83;;;3.43;;
13250;SDS011;6692;50.710;7.180;2023-04-03T07:24:57;4.47;;;4.07;;
13250;SDS011;6692;50.710;7.180;2023-04-03T07:26:58;4.70;;;4.18;;
13250;SDS011;6692;50.710;7.180;2023-04-03T07:28:58;3.90;;;3.47;;
13250;SDS011;6692;50.710;7.180;2023-04-03T07:31:05;3.97;;;3.67;;
13250;SDS011;6692;50.710;7.180;2023-04-03T07:33:04;5.37;;;3.60;;
13250;SDS011;6692;50.710;7.180;2023-04-03T07:35:05;5.63;;;3.67;;
13250;SDS011;6692;50.710;7.180;2023-04-03T07:37:06;4.60;;;3.77;;
13250;SDS011;6692;50.710;7.180;2023-04-03T07:39:06;4.20;;;3.73;;
13250;SDS011;6692;50.710;7.180;2023-04-03T07:41:10;5.10;;;3.97;;
13250;SDS011;6692;50.710;7.180;2023-04-03T07:43:08;5.17;;;3.63;;
13250;SDS011;6692;50.710;7.180;2023-04-03T07:45:10;5.53;;;3.70;;
13250;SDS011;6692;50.710;7.180;2023-04-03T07:47:11;5.35;;;4.37;;
13250;SDS011;6692;50.710;7.180;2023-04-03T07:49:12;4.07;;;3.78;;
13250;SDS011;6692;50.710;7.180;2023-04-03T07:51:13;4.50;;;4.03;;
13250;SDS011;6692;50.710;7.180;2023-04-03T07:53:13;5.07;;;3.70;;
13250;SDS011;6692;50.710;7.180;2023-04-03T07:55:14;5.70;;;4.03;;
13250;SDS011;6692;50.710;7.180;2023-04-03T07:57:15;4.33;;;3.90;;
13250;SDS011;6692;50.710;7.180;2023-04-03T07:59:16;5.33;;;4.20;;
13250;SDS011;6692;50.710;7.180;2023-04-03T08:01:17;4.93;;;3.83;;
13250;SDS011;6692;50.710;7.180;2023-04-03T08:03:18;5.47;;;4.17;;
13250;SDS011;6692;50.710;7.180;2023-04-03T08:05:18;4.80;;;4.40;;
13250;SDS011;6692;50.710;7.180;2023-04-03T08:07:20;8.00;;;5.07;;
13250;SDS011;6692;50.710;7.180;2023-04-03T08:09:20;5.85;;;4.20;;
13250;SDS011;6692;50.710;7.180;2023-04-03T08:11:21;7.03;;;4.97;;
13250;SDS011;6692;50.710;7.180;2023-04-03T08:13:22;4.37;;;4.07;;
13250;SDS011;6692;50.710;7.180;2023-04-03T08:15:22;5.17;;;4.67;;
13250;SDS011;6692;50.710;7.180;2023-04-03T08:17:23;5.90;;;5.40;;
13250;SDS011;6692;50.710;7.180;2023-04-03T08:19:24;5.27;;;4.30;;
13250;SDS011;6692;50.710;7.180;2023-04-03T08:21:25;5.30;;;4.20;;
13250;SDS011;6692;50.710;7.180;2023-04-03T08:23:26;5.97;;;4.33;;
13250;SDS011;6692;50.710;7.180;2023-04-03T08:25:27;5.17;;;4.43;;
13250;SDS011;6692;50.710;7.180;2023-04-03T08:27:28;5.23;;;4.47;;
13250;SDS011;6692;50.710;7.180;2023-04-03T08:29:29;6.03;;;4.60;;
13250;SDS011;6692;50.710;7.180;2023-04-03T08:31:30;5.50;;;4.97;;
13250;SDS011;6692;50.710;7.180;2023-04-03T08:33:32;4.53;;;3.93;;
13250;SDS011;6692;50.710;7.180;2023-04-03T08:35:32;7.03;;;4.17;;
13250;SDS011;6692;50.710;7.180;2023-04-03T08:37:35;5.10;;;4.70;;
13250;SDS011;6692;50.710;7.180;2023-04-03T08:39:35;4.63;;;3.93;;
13250;SDS011;6692;50.710;7.180;2023-04-03T08:41:38;4.93;;;4.37;;
13250;SDS011;6692;50.710;7.180;2023-04-03T08:43:48;5.30;;;4.83;;
13250;SDS011;6692;50.710;7.180;2023-04-03T08:45:49;5.63;;;4.47;;
13250;SDS011;6692;50.710;7.180;2023-04-03T08:48:00;4.90;;;4.50;;
13250;SDS011;6692;50.710;7.180;2023-04-03T08:50:03;4.67;;;4.03;;
13250;SDS011;6692;50.710;7.180;2023-04-03T08:52:04;4.53;;;4.13;;
13250;SDS011;6692;50.710;7.180;2023-04-03T08:54:05;5.57;;;4.67;;
13250;SDS011;6692;50.710;7.180;2023-04-03T08:56:08;5.27;;;4.50;;
13250;SDS011;6692;50.710;7.180;2023-04-03T08:58:14;5.60;;;4.63;;
13250;SDS011;6692;50.710;7.180;2023-04-03T09:00:16;5.33;;;4.90;;
13250;SDS011;6692;50.710;7.180;2023-04-03T09:04:24;5.80;;;5.30;;
13250;SDS011;6692;50.710;7.180;2023-04-03T09:06:26;6.53;;;6.03;;
13250;SDS011;6692;50.710;7.180;2023-04-03T09:08:27;5.63;;;5.00;;
13250;SDS011;6692;50.710;7.180;2023-04-03T09:10:28;5.20;;;4.63;;
13250;SDS011;6692;50.710;7.180;2023-04-03T09:12:32;5.20;;;4.77;;
13250;SDS011;6692;50.710;7.180;2023-04-03T09:14:39;6.23;;;4.33;;
13250;SDS011;6692;50.710;7.180;2023-04-03T09:16:47;4.67;;;4.27;;
13250;SDS011;6692;50.710;7.180;2023-04-03T09:18:52;4.50;;;4.20;;
13250;SDS011;6692;50.710;7.180;2023-04-03T09:20:54;4.90;;;4.60;;
13250;SDS011;6692;50.710;7.180;2023-04-03T09:22:54;5.30;;;4.80;;
13250;SDS011;6692;50.710;7.180;2023-04-03T09:25:05;5.10;;;4.50;;
13250;SDS011;6692;50.710;7.180;2023-04-03T09:27:06;5.47;;;4.57;;
13250;SDS011;6692;50.710;7.180;2023-04-03T09:29:06;5.23;;;4.73;;
13250;SDS011;6692;50.710;7.180;2023-04-03T09:31:14;5.20;;;4.80;;
13250;SDS011;6692;50.710;7.180;2023-04-03T09:33:14;4.83;;;4.43;;
13250;SDS011;6692;50.710;7.180;2023-04-03T09:35:21;5.23;;;4.73;;
13250;SDS011;6692;50.710;7.180;2023-04-03T09:37:35;6.00;;;4.40;;
13250;SDS011;6692;50.710;7.180;2023-04-03T09:42:26;5.23;;;4.03;;
13250;SDS011;6692;50.710;7.180;2023-04-03T09:44:19;4.80;;;4.17;;
13250;SDS011;6692;50.710;7.180;2023-04-03T09:46:29;4.20;;;3.90;;
13250;SDS011;6692;50.710;7.180;2023-04-03T09:48:26;5.30;;;4.87;;
13250;SDS011;6692;50.710;7.180;2023-04-03T09:50:27;4.80;;;4.40;;
13250;SDS011;6692;50.710;7.180;2023-04-03T09:52:28;5.37;;;4.97;;
13250;SDS011;6692;50.710;7.180;2023-04-03T09:54:35;5.10;;;4.27;;
13250;SDS011;6692;50.710;7.180;2023-04-03T09:56:30;4.77;;;4.27;;
13250;SDS011;6692;50.710;7.180;2023-04-03T09:58:35;5.77;;;4.67;;
13250;SDS011;6692;50.710;7.180;2023-04-03T10:00:35;5.33;;;4.90;;
13250;SDS011;6692;50.710;7.180;2023-04-03T10:02:37;5.33;;;4.87;;
13250;SDS011;6692;50.710;7.180;2023-04-03T10:04:38;4.83;;;4.43;;
13250;SDS011;6692;50.710;7.180;2023-04-03T10:06:46;5.13;;;4.73;;
13250;SDS011;6692;50.710;7.180;2023-04-03T10:08:58;5.20;;;4.90;;
13250;SDS011;6692;50.710;7.180;2023-04-03T10:11:04;5.70;;;5.17;;
13250;SDS011;6692;50.710;7.180;2023-04-03T10:13:02;5.93;;;5.13;;
13250;SDS011;6692;50.710;7.180;2023-04-03T10:14:54;5.03;;;4.63;;
13250;SDS011;6692;50.710;7.180;2023-04-03T10:16:57;5.20;;;4.47;;
13250;SDS011;6692;50.710;7.180;2023-04-03T10:19:01;4.87;;;4.47;;
13250;SDS011;6692;50.710;7.180;2023-04-03T10:21:06;5.30;;;4.80;;
13250;SDS011;6692;50.710;7.180;2023-04-03T10:23:27;5.20;;;4.80;;
13250;SDS011;6692;50.710;7.180;2023-04-03T10:25:31;4.90;;;4.50;;
13250;SDS011;6692;50.710;7.180;2023-04-03T10:27:40;5.40;;;5.00;;
13250;SDS011;6692;50.710;7.180;2023-04-03T10:29:59;4.40;;;4.00;;
13250;SDS011;6692;50.710;7.180;2023-04-03T10:32:00;4.10;;;3.70;;
13250;SDS011;6692;50.710;7.180;2023-04-03T10:34:06;4.53;;;4.13;;
13250;SDS011;6692;50.710;7.180;2023-04-03T10:36:12;5.23;;;4.30;;
13250;SDS011;6692;50.710;7.180;2023-04-03T10:38:20;3.97;;;3.67;;
13250;SDS011;6692;50.710;7.180;2023-04-03T10:42:38;4.50;;;4.10;;
13250;SDS011;6692;50.710;7.180;2023-04-03T10:44:52;4.70;;;4.30;;
13250;SDS011;6692;50.710;7.180;2023-04-03T10:47:07;4.27;;;3.90;;
13250;SDS011;6692;50.710;7.180;2023-04-03T10:51:44;4.80;;;4.40;;
13250;SDS011;6692;50.710;7.180;2023-04-03T10:53:49;5.40;;;4.67;;
13250;SDS011;6692;50.710;7.180;2023-04-03T10:55:53;4.37;;;4.07;;
13250;SDS011;6692;50.710;7.180;2023-04-03T10:57:53;4.93;;;4.50;;
13250;SDS011;6692;50.710;7.180;2023-04-03T10:59:55;5.43;;;4.53;;
13250;SDS011;6692;50.710;7.180;2023-04-03T11:01:58;5.90;;;5.40;;
13250;SDS011;6692;50.710;7.180;2023-04-03T11:03:58;4.83;;;4.53;;
13250;SDS011;6692;50.710;7.180;2023-04-03T11:05:59;5.13;;;4.83;;
13250;SDS011;6692;50.710;7.180;2023-04-03T11:08:01;6.30;;;5.80;;
13250;SDS011;6692;50.710;7.180;2023-04-03T11:10:02;6.43;;;5.93;;
13250;SDS011;6692;50.710;7.180;2023-04-03T11:12:09;5.30;;;5.00;;
13250;SDS011;6692;50.710;7.180;2023-04-03T11:14:09;6.07;;;5.67;;
13250;SDS011;6692;50.710;7.180;2023-04-03T11:16:12;4.60;;;4.30;;
13250;SDS011;6692;50.710;7.180;2023-04-03T11:18:12;5.20;;;4.67;;
13250;SDS011;6692;50.710;7.180;2023-04-03T11:20:15;4.87;;;4.47;;
13250;SDS011;6692;50.710;7.180;2023-04-03T11:22:29;5.70;;;5.30;;
13250;SDS011;6692;50.710;7.180;2023-04-03T11:24:29;4.53;;;4.33;;
13250;SDS011;6692;50.710;7.180;2023-04-03T11:26:31;6.00;;;5.50;;
13250;SDS011;6692;50.710;7.180;2023-04-03T11:28:31;5.80;;;5.40;;
13250;SDS011;6692;50.710;7.180;2023-04-03T11:30:41;5.37;;;4.97;;
13250;SDS011;6692;50.710;7.180;2023-04-03T11:32:51;4.40;;;4.10;;
13250;SDS011;6692;50.710;7.180;2023-04-03T11:34:49;4.60;;;4.27;;
13250;SDS011;6692;50.710;7.180;2023-04-03T11:36:52;5.23;;;4.83;;
13250;SDS011;6692;50.710;7.180;2023-04-03T11:38:52;5.23;;;4.83;;
13250;SDS011;6692;50.710;7.180;2023-04-03T11:40:52;6.53;;;6.03;;
13250;SDS011;6692;50.710;7.180;2023-04-03T11:42:55;4.13;;;3.83;;
13250;SDS011;6692;50.710;7.180;2023-04-03T11:47:10;5.23;;;4.83;;
13250;SDS011;6692;50.710;7.180;2023-04-03T11:49:49;6.23;;;5.73;;
13250;SDS011;6692;50.710;7.180;2023-04-03T11:53:35;5.97;;;5.47;;
13250;SDS011;6692;50.710;7.180;2023-04-03T11:55:41;5.93;;;5.50;;
13250;SDS011;6692;50.710;7.180;2023-04-03T11:57:43;5.90;;;5.60;;
13250;SDS011;6692;50.710;7.180;2023-04-03T11:59:42;6.60;;;6.17;;
13250;SDS011;6692;50.710;7.180;2023-04-03T12:01:46;7.00;;;6.40;;
13250;SDS011;6692;50.710;7.180;2023-04-03T12:08:47;6.67;;;6.17;;
13250;SDS011;6692;50.710;7.180;2023-04-03T12:13:00;6.83;;;6.53;;
13250;SDS011;6692;50.710;7.180;2023-04-03T12:17:19;7.53;;;7.03;;
13250;SDS011;6692;50.710;7.180;2023-04-03T12:19:29;8.10;;;7.40;;
13250;SDS011;6692;50.710;7.180;2023-04-03T12:22:04;6.63;;;6.17;;
13250;SDS011;6692;50.710;7.180;2023-04-03T12:24:01;5.97;;;5.50;;
13250;SDS011;6692;50.710;7.180;2023-04-03T12:26:04;6.60;;;6.20;;
13250;SDS011;6692;50.710;7.180;2023-04-03T12:28:05;6.47;;;5.97;;
13250;SDS011;6692;50.710;7.180;2023-04-03T12:30:12;6.50;;;6.10;;
13250;SDS011;6692;50.710;7.180;2023-04-03T12:32:26;7.33;;;6.83;;
13250;SDS011;6692;50.710;7.180;2023-04-03T12:36:58;7.03;;;6.63;;
13250;SDS011;6692;50.710;7.180;2023-04-03T12:39:11;8.30;;;7.90;;
13250;SDS011;6692;50.710;7.180;2023-04-03T12:41:30;7.67;;;7.27;;
13250;SDS011;6692;50.710;7.180;2023-04-03T12:45:59;6.17;;;5.80;;
13250;SDS011;6692;50.710;7.180;2023-04-03T12:48:00;7.57;;;6.90;;
13250;SDS011;6692;50.710;7.180;2023-04-03T12:50:02;6.50;;;6.00;;
13250;SDS011;6692;50.710;7.180;2023-04-03T12:52:03;6.50;;;6.10;;
13250;SDS011;6692;50.710;7.180;2023-04-03T12:54:22;6.37;;;5.83;;